sensor_id;sensor_type;location;lat;lon;timestamp;P1;durP1;ratioP1;P2;durP2;ratioP2
15130;SDS011;7666;50.920;4.628;2024-01-15T00:02:13;29.57;;;18.37;;
15130;SDS011;7666;50.920;4.628;2024-01-15T00:04:59;29.33;;;18.03;;
15130;SDS011;7666;50.920;4.628;2024-01-15T00:07:45;24.70;;;17.30;;
15130;SDS011;7666;50.920;4.628;2024-01-15T00:10:31;27.57;;;18.17;;
15130;SDS011;7666;50.920;4.628;2024-01-15T00:13:17;29.87;;;19.20;;
15130;SDS011;7666;50.920;4.628;2024-01-15T00:16:06;27.50;;;17.87;;
15130;SDS011;7666;50.920;4.628;2024-01-15T00:18:52;28.90;;;17.50;;
15130;SDS011;7666;50.920;4.628;2024-01-15T00:21:38;27.87;;;17.57;;
15130;SDS011;7666;50.920;4.628;2024-01-15T00:24:24;26.80;;;17.07;;
15130;SDS011;7666;50.920;4.628;2024-01-15T00:27:10;24.87;;;16.33;;
15130;SDS011;7666;50.920;4.628;2024-01-15T00:29:56;27.70;;;17.23;;
15130;SDS011;7666;50.920;4.628;2024-01-15T00:32:42;24.30;;;15.73;;
15130;SDS011;7666;50.920;4.628;2024-01-15T00:35:28;26.07;;;15.83;;
15130;SDS011;7666;50.920;4.628;2024-01-15T00:38:14;23.90;;;15.17;;
15130;SDS011;7666;50.920;4.628;2024-01-15T00:41:00;20.93;;;14.33;;
15130;SDS011;7666;50.920;4.628;2024-01-15T00:43:46;22.47;;;14.83;;
15130;SDS011;7666;50.920;4.628;2024-01-15T00:46:41;23.17;;;15.00;;
15130;SDS011;7666;50.920;4.628;2024-01-15T00:49:31;23.67;;;15.13;;
15130;SDS011;7666;50.920;4.628;2024-01-15T00:52:17;21.40;;;14.50;;
15130;SDS011;7666;50.920;4.628;2024-01-15T00:55:03;19.67;;;12.87;;
15130;SDS011;7666;50.920;4.628;2024-01-15T00:57:49;22.03;;;14.00;;
15130;SDS011;7666;50.920;4.628;2024-01-15T01:00:35;21.60;;;13.97;;
15130;SDS011;7666;50.920;4.628;2024-01-15T01:03:21;22.97;;;14.17;;
15130;SDS011;7666;50.920;4.628;2024-01-15T01:06:07;23.63;;;13.87;;
15130;SDS011;7666;50.920;4.628;2024-01-15T01:08:53;19.97;;;13.23;;
15130;SDS011;7666;50.920;4.628;2024-01-15T01:11:39;18.57;;;12.53;;
15130;SDS011;7666;50.920;4.628;2024-01-15T01:14:25;18.13;;;12.27;;
15130;SDS011;7666;50.920;4.628;2024-01-15T01:17:11;21.20;;;13.00;;
15130;SDS011;7666;50.920;4.628;2024-01-15T01:19:57;18.80;;;12.13;;
15130;SDS011;7666;50.920;4.628;2024-01-15T01:22:43;17.27;;;11.47;;
15130;SDS011;7666;50.920;4.628;2024-01-15T01:25:29;17.40;;;11.77;;
15130;SDS011;7666;50.920;4.628;2024-01-15T01:28:15;17.60;;;11.50;;
15130;SDS011;7666;50.920;4.628;2024-01-15T01:31:01;16.53;;;12.17;;
15130;SDS011;7666;50.920;4.628;2024-01-15T01:33:47;18.17;;;11.50;;
15130;SDS011;7666;50.920;4.628;2024-01-15T01:36:33;19.60;;;12.40;;
15130;SDS011;7666;50.920;4.628;2024-01-15T01:39:19;14.97;;;11.43;;
15130;SDS011;7666;50.920;4.628;2024-01-15T01:42:05;17.70;;;11.63;;
15130;SDS011;7666;50.920;4.628;2024-01-15T01:44:51;16.43;;;11.60;;
15130;SDS011;7666;50.920;4.628;2024-01-15T01:47:37;15.67;;;10.70;;
15130;SDS011;7666;50.920;4.628;2024-01-15T01:50:24;16.40;;;10.53;;
15130;SDS011;7666;50.920;4.628;2024-01-15T01:53:10;15.37;;;10.50;;
15130;SDS011;7666;50.920;4.628;2024-01-15T01:55:56;18.23;;;10.53;;
15130;SDS011;7666;50.920;4.628;2024-01-15T01:58:43;14.03;;;9.50;;
15130;SDS011;7666;50.920;4.628;2024-01-15T02:01:31;14.03;;;10.13;;
15130;SDS011;7666;50.920;4.628;2024-01-15T02:04:17;12.60;;;9.53;;
15130;SDS011;7666;50.920;4.628;2024-01-15T02:07:03;12.77;;;9.73;;
15130;SDS011;7666;50.920;4.628;2024-01-15T02:09:49;13.00;;;8.70;;
15130;SDS011;7666;50.920;4.628;2024-01-15T02:12:36;10.40;;;8.53;;
15130;SDS011;7666;50.920;4.628;2024-01-15T02:15:22;11.67;;;8.90;;
15130;SDS011;7666;50.920;4.628;2024-01-15T02:18:08;10.87;;;8.17;;
15130;SDS011;7666;50.920;4.628;2024-01-15T02:20:54;11.20;;;8.17;;
15130;SDS011;7666;50.920;4.628;2024-01-15T02:23:40;10.80;;;7.63;;
15130;SDS011;7666;50.920;4.628;2024-01-15T02:26:25;9.73;;;7.80;;
15130;SDS011;7666;50.920;4.628;2024-01-15T02:29:12;10.23;;;7.23;;
15130;SDS011;7666;50.920;4.628;2024-01-15T02:31:59;11.17;;;6.33;;
15130;SDS011;7666;50.920;4.628;2024-01-15T02:34:44;8.73;;;5.83;;
15130;SDS011;7666;50.920;4.628;2024-01-15T02:37:30;7.20;;;5.67;;
15130;SDS011;7666;50.920;4.628;2024-01-15T02:40:16;7.97;;;5.20;;
15130;SDS011;7666;50.920;4.628;2024-01-15T02:43:02;6.30;;;5.10;;
15130;SDS011;7666;50.920;4.628;2024-01-15T02:45:48;7.40;;;4.90;;
15130;SDS011;7666;50.920;4.628;2024-01-15T02:48:34;6.80;;;5.10;;
15130;SDS011;7666;50.920;4.628;2024-01-15T02:51:20;5.33;;;4.53;;
15130;SDS011;7666;50.920;4.628;2024-01-15T02:54:06;7.33;;;4.40;;
15130;SDS011;7666;50.920;4.628;2024-01-15T02:56:52;7.60;;;5.27;;
15130;SDS011;7666;50.920;4.628;2024-01-15T02:59:38;7.50;;;5.00;;
15130;SDS011;7666;50.920;4.628;2024-01-15T03:02:24;8.37;;;5.30;;
15130;SDS011;7666;50.920;4.628;2024-01-15T03:05:10;6.67;;;5.07;;
15130;SDS011;7666;50.920;4.628;2024-01-15T03:07:56;9.17;;;5.40;;
15130;SDS011;7666;50.920;4.628;2024-01-15T03:10:42;8.33;;;4.90;;
15130;SDS011;7666;50.920;4.628;2024-01-15T03:13:28;8.13;;;5.47;;
15130;SDS011;7666;50.920;4.628;2024-01-15T03:16:14;8.73;;;6.00;;
15130;SDS011;7666;50.920;4.628;2024-01-15T03:19:00;8.17;;;5.97;;
15130;SDS011;7666;50.920;4.628;2024-01-15T03:21:46;8.23;;;5.57;;
15130;SDS011;7666;50.920;4.628;2024-01-15T03:24:32;9.80;;;6.40;;
15130;SDS011;7666;50.920;4.628;2024-01-15T03:27:18;8.13;;;5.87;;
15130;SDS011;7666;50.920;4.628;2024-01-15T03:30:04;8.90;;;6.07;;
15130;SDS011;7666;50.920;4.628;2024-01-15T03:32:51;7.73;;;5.23;;
15130;SDS011;7666;50.920;4.628;2024-01-15T03:35:37;10.10;;;6.03;;
15130;SDS011;7666;50.920;4.628;2024-01-15T03:38:23;7.97;;;6.33;;
15130;SDS011;7666;50.920;4.628;2024-01-15T03:41:09;9.07;;;6.57;;
15130;SDS011;7666;50.920;4.628;2024-01-15T03:43:55;10.00;;;7.93;;
15130;SDS011;7666;50.920;4.628;2024-01-15T03:46:41;9.33;;;6.47;;
15130;SDS011;7666;50.920;4.628;2024-01-15T03:49:27;11.57;;;7.03;;
15130;SDS011;7666;50.920;4.628;2024-01-15T03:52:12;10.47;;;7.40;;
15130;SDS011;7666;50.920;4.628;2024-01-15T03:54:58;9.80;;;7.70;;
15130;SDS011;7666;50.920;4.628;2024-01-15T03:57:44;13.50;;;8.80;;
15130;SDS011;7666;50.920;4.628;2024-01-15T04:00:30;14.13;;;8.97;;
15130;SDS011;7666;50.920;4.628;2024-01-15T04:03:16;11.77;;;8.67;;
15130;SDS011;7666;50.920;4.628;2024-01-15T04:06:03;12.90;;;8.77;;
15130;SDS011;7666;50.920;4.628;2024-01-15T04:08:49;11.47;;;9.00;;
15130;SDS011;7666;50.920;4.628;2024-01-15T04:11:35;13.97;;;9.30;;
15130;SDS011;7666;50.920;4.628;2024-01-15T04:14:21;15.83;;;10.00;;
15130;SDS011;7666;50.920;4.628;2024-01-15T04:17:07;12.67;;;9.30;;
15130;SDS011;7666;50.920;4.628;2024-01-15T04:19:53;13.07;;;9.70;;
15130;SDS011;7666;50.920;4.628;2024-01-15T04:22:39;15.73;;;10.63;;
15130;SDS011;7666;50.920;4.628;2024-01-15T04:25:25;15.50;;;10.93;;
15130;SDS011;7666;50.920;4.628;2024-01-15T04:28:11;17.40;;;11.70;;
15130;SDS011;7666;50.920;4.628;2024-01-15T04:30:58;17.23;;;11.93;;
15130;SDS011;7666;50.920;4.628;2024-01-15T04:33:45;18.90;;;13.33;;
15130;SDS011;7666;50.920;4.628;2024-01-15T04:36:31;16.57;;;12.27;;
15130;SDS011;7666;50.920;4.628;2024-01-15T04:39:16;19.80;;;13.90;;
15130;SDS011;7666;50.920;4.628;2024-01-15T04:42:03;19.57;;;14.40;;
15130;SDS011;7666;50.920;4.628;2024-01-15T04:44:49;17.63;;;12.97;;
15130;SDS011;7666;50.920;4.628;2024-01-15T04:47:35;20.43;;;14.13;;
15130;SDS011;7666;50.920;4.628;2024-01-15T04:50:22;22.50;;;13.87;;
15130;SDS011;7666;50.920;4.628;2024-01-15T04:53:08;19.47;;;13.77;;
15130;SDS011;7666;50.920;4.628;2024-01-15T04:55:54;20.60;;;14.73;;
15130;SDS011;7666;50.920;4.628;2024-01-15T04:58:40;20.63;;;14.60;;
15130;SDS011;7666;50.920;4.628;2024-01-15T05:01:31;21.37;;;14.83;;
15130;SDS011;7666;50.920;4.628;2024-01-15T05:04:17;21.30;;;14.70;;
15130;SDS011;7666;50.920;4.628;2024-01-15T05:07:03;20.10;;;14.20;;
15130;SDS011;7666;50.920;4.628;2024-01-15T05:09:49;20.73;;;13.63;;
15130;SDS011;7666;50.920;4.628;2024-01-15T05:12:35;21.00;;;13.57;;
15130;SDS011;7666;50.920;4.628;2024-01-15T05:15:21;19.47;;;13.37;;
15130;SDS011;7666;50.920;4.628;2024-01-15T05:18:07;20.50;;;13.53;;
15130;SDS011;7666;50.920;4.628;2024-01-15T05:20:53;15.83;;;12.93;;
15130;SDS011;7666;50.920;4.628;2024-01-15T05:23:39;16.23;;;11.20;;
15130;SDS011;7666;50.920;4.628;2024-01-15T05:26:25;17.50;;;11.50;;
15130;SDS011;7666;50.920;4.628;2024-01-15T05:29:11;16.63;;;11.03;;
15130;SDS011;7666;50.920;4.628;2024-01-15T05:31:57;15.23;;;10.30;;
15130;SDS011;7666;50.920;4.628;2024-01-15T05:34:43;15.23;;;10.73;;
15130;SDS011;7666;50.920;4.628;2024-01-15T05:37:29;14.67;;;9.90;;
15130;SDS011;7666;50.920;4.628;2024-01-15T05:40:15;17.27;;;9.90;;
15130;SDS011;7666;50.920;4.628;2024-01-15T05:43:00;14.43;;;9.50;;
15130;SDS011;7666;50.920;4.628;2024-01-15T05:45:46;11.47;;;8.73;;
15130;SDS011;7666;50.920;4.628;2024-01-15T05:48:32;12.90;;;8.50;;
15130;SDS011;7666;50.920;4.628;2024-01-15T05:51:19;12.40;;;8.57;;
15130;SDS011;7666;50.920;4.628;2024-01-15T05:54:04;11.97;;;7.27;;
15130;SDS011;7666;50.920;4.628;2024-01-15T05:56:51;9.30;;;6.17;;
15130;SDS011;7666;50.920;4.628;2024-01-15T05:59:37;8.90;;;5.57;;
15130;SDS011;7666;50.920;4.628;2024-01-15T06:02:23;7.53;;;5.10;;
15130;SDS011;7666;50.920;4.628;2024-01-15T06:05:09;12.07;;;4.57;;
15130;SDS011;7666;50.920;4.628;2024-01-15T06:07:55;7.30;;;4.17;;
15130;SDS011;7666;50.920;4.628;2024-01-15T06:10:41;8.47;;;4.10;;
15130;SDS011;7666;50.920;4.628;2024-01-15T06:13:27;9.63;;;3.90;;
15130;SDS011;7666;50.920;4.628;2024-01-15T06:16:13;5.93;;;3.20;;
15130;SDS011;7666;50.920;4.628;2024-01-15T06:19:01;5.77;;;3.13;;
15130;SDS011;7666;50.920;4.628;2024-01-15T06:21:46;7.77;;;3.43;;
15130;SDS011;7666;50.920;4.628;2024-01-15T06:24:32;7.40;;;3.60;;
15130;SDS011;7666;50.920;4.628;2024-01-15T06:27:19;7.90;;;3.27;;
15130;SDS011;7666;50.920;4.628;2024-01-15T06:30:05;7.07;;;3.30;;
15130;SDS011;7666;50.920;4.628;2024-01-15T06:32:51;7.80;;;3.33;;
15130;SDS011;7666;50.920;4.628;2024-01-15T06:35:37;7.93;;;3.50;;
15130;SDS011;7666;50.920;4.628;2024-01-15T06:38:23;6.13;;;2.87;;
15130;SDS011;7666;50.920;4.628;2024-01-15T06:41:10;4.37;;;2.80;;
15130;SDS011;7666;50.920;4.628;2024-01-15T06:43:56;5.37;;;2.23;;
15130;SDS011;7666;50.920;4.628;2024-01-15T06:46:42;4.43;;;2.20;;
15130;SDS011;7666;50.920;4.628;2024-01-15T06:49:29;5.50;;;2.37;;
15130;SDS011;7666;50.920;4.628;2024-01-15T06:52:15;6.93;;;2.13;;
15130;SDS011;7666;50.920;4.628;2024-01-15T06:55:01;7.63;;;2.37;;
15130;SDS011;7666;50.920;4.628;2024-01-15T06:57:47;5.43;;;2.13;;
15130;SDS011;7666;50.920;4.628;2024-01-15T07:00:33;7.63;;;2.00;;
15130;SDS011;7666;50.920;4.628;2024-01-15T07:03:19;3.60;;;1.90;;
15130;SDS011;7666;50.920;4.628;2024-01-15T07:06:05;5.80;;;1.90;;
15130;SDS011;7666;50.920;4.628;2024-01-15T07:08:51;5.17;;;2.30;;
15130;SDS011;7666;50.920;4.628;2024-01-15T07:11:37;10.13;;;2.07;;
15130;SDS011;7666;50.920;4.628;2024-01-15T07:14:23;5.33;;;2.00;;
15130;SDS011;7666;50.920;4.628;2024-01-15T07:17:09;6.33;;;1.90;;
15130;SDS011;7666;50.920;4.628;2024-01-15T07:19:54;7.47;;;2.03;;
15130;SDS011;7666;50.920;4.628;2024-01-15T07:22:40;6.00;;;2.50;;
15130;SDS011;7666;50.920;4.628;2024-01-15T07:25:26;7.17;;;2.37;;
15130;SDS011;7666;50.920;4.628;2024-01-15T07:28:12;8.53;;;2.40;;
15130;SDS011;7666;50.920;4.628;2024-01-15T07:30:58;8.57;;;2.40;;
15130;SDS011;7666;50.920;4.628;2024-01-15T07:33:46;7.40;;;2.17;;
15130;SDS011;7666;50.920;4.628;2024-01-15T07:36:32;7.73;;;2.30;;
15130;SDS011;7666;50.920;4.628;2024-01-15T07:39:18;6.17;;;2.10;;
15130;SDS011;7666;50.920;4.628;2024-01-15T07:42:04;5.37;;;2.30;;
15130;SDS011;7666;50.920;4.628;2024-01-15T07:44:51;4.83;;;2.30;;
15130;SDS011;7666;50.920;4.628;2024-01-15T07:47:37;6.63;;;2.40;;
15130;SDS011;7666;50.920;4.628;2024-01-15T07:50:22;4.47;;;2.03;;
15130;SDS011;7666;50.920;4.628;2024-01-15T07:53:08;4.73;;;2.00;;
15130;SDS011;7666;50.920;4.628;2024-01-15T07:55:54;5.73;;;2.90;;
15130;SDS011;7666;50.920;4.628;2024-01-15T07:58:40;7.10;;;2.37;;
15130;SDS011;7666;50.920;4.628;2024-01-15T08:01:26;6.73;;;2.50;;
15130;SDS011;7666;50.920;4.628;2024-01-15T08:04:13;7.20;;;2.20;;
15130;SDS011;7666;50.920;4.628;2024-01-15T08:06:58;9.03;;;2.57;;
15130;SDS011;7666;50.920;4.628;2024-01-15T08:09:44;7.57;;;2.40;;
15130;SDS011;7666;50.920;4.628;2024-01-15T08:12:33;5.27;;;2.50;;
15130;SDS011;7666;50.920;4.628;2024-01-15T08:15:20;6.73;;;2.40;;
15130;SDS011;7666;50.920;4.628;2024-01-15T08:18:06;6.80;;;2.70;;
15130;SDS011;7666;50.920;4.628;2024-01-15T08:20:52;9.63;;;2.40;;
15130;SDS011;7666;50.920;4.628;2024-01-15T08:23:38;5.93;;;2.80;;
15130;SDS011;7666;50.920;4.628;2024-01-15T08:26:24;6.60;;;2.57;;
15130;SDS011;7666;50.920;4.628;2024-01-15T08:29:10;5.60;;;2.40;;
15130;SDS011;7666;50.920;4.628;2024-01-15T08:31:56;8.57;;;2.37;;
15130;SDS011;7666;50.920;4.628;2024-01-15T08:34:42;8.87;;;2.50;;
15130;SDS011;7666;50.920;4.628;2024-01-15T08:37:28;7.53;;;2.60;;
15130;SDS011;7666;50.920;4.628;2024-01-15T08:40:14;9.10;;;2.80;;
15130;SDS011;7666;50.920;4.628;2024-01-15T08:43:01;7.80;;;2.60;;
15130;SDS011;7666;50.920;4.628;2024-01-15T08:45:47;10.70;;;3.23;;
15130;SDS011;7666;50.920;4.628;2024-01-15T08:48:33;7.17;;;2.60;;
15130;SDS011;7666;50.920;4.628;2024-01-15T08:51:19;5.83;;;2.17;;
15130;SDS011;7666;50.920;4.628;2024-01-15T08:54:05;6.70;;;2.37;;
15130;SDS011;7666;50.920;4.628;2024-01-15T08:56:53;7.57;;;2.00;;
15130;SDS011;7666;50.920;4.628;2024-01-15T08:59:39;9.63;;;2.77;;
15130;SDS011;7666;50.920;4.628;2024-01-15T09:02:26;3.80;;;2.03;;
15130;SDS011;7666;50.920;4.628;2024-01-15T09:05:12;8.87;;;2.27;;
15130;SDS011;7666;50.920;4.628;2024-01-15T09:07:58;8.93;;;2.80;;
15130;SDS011;7666;50.920;4.628;2024-01-15T09:10:44;7.37;;;2.13;;
15130;SDS011;7666;50.920;4.628;2024-01-15T09:13:31;10.67;;;2.70;;
15130;SDS011;7666;50.920;4.628;2024-01-15T09:16:17;7.73;;;2.27;;
15130;SDS011;7666;50.920;4.628;2024-01-15T09:19:03;6.53;;;2.33;;
15130;SDS011;7666;50.920;4.628;2024-01-15T09:21:49;10.43;;;2.50;;
15130;SDS011;7666;50.920;4.628;2024-01-15T09:24:35;8.33;;;2.10;;
15130;SDS011;7666;50.920;4.628;2024-01-15T09:27:21;8.53;;;2.13;;
15130;SDS011;7666;50.920;4.628;2024-01-15T09:30:07;7.80;;;2.10;;
15130;SDS011;7666;50.920;4.628;2024-01-15T09:32:54;8.13;;;2.20;;
15130;SDS011;7666;50.920;4.628;2024-01-15T09:35:39;7.63;;;2.60;;
15130;SDS011;7666;50.920;4.628;2024-01-15T09:38:25;10.60;;;2.47;;
15130;SDS011;7666;50.920;4.628;2024-01-15T09:41:12;4.37;;;2.00;;
15130;SDS011;7666;50.920;4.628;2024-01-15T09:43:58;7.13;;;1.93;;
15130;SDS011;7666;50.920;4.628;2024-01-15T09:46:44;7.33;;;2.03;;
15130;SDS011;7666;50.920;4.628;2024-01-15T09:49:31;5.33;;;2.13;;
15130;SDS011;7666;50.920;4.628;2024-01-15T09:52:16;6.27;;;2.17;;
15130;SDS011;7666;50.920;4.628;2024-01-15T09:55:05;6.00;;;2.07;;
15130;SDS011;7666;50.920;4.628;2024-01-15T09:57:51;6.70;;;2.20;;
15130;SDS011;7666;50.920;4.628;2024-01-15T10:00:39;7.90;;;2.27;;
15130;SDS011;7666;50.920;4.628;2024-01-15T10:03:27;7.07;;;2.50;;
15130;SDS011;7666;50.920;4.628;2024-01-15T10:06:16;6.83;;;2.03;;
15130;SDS011;7666;50.920;4.628;2024-01-15T10:09:03;9.47;;;2.27;;
15130;SDS011;7666;50.920;4.628;2024-01-15T10:11:49;6.07;;;1.80;;
15130;SDS011;7666;50.920;4.628;2024-01-15T10:14:35;9.03;;;1.97;;
15130;SDS011;7666;50.920;4.628;2024-01-15T10:17:21;10.00;;;2.33;;
15130;SDS011;7666;50.920;4.628;2024-01-15T10:20:10;7.50;;;2.00;;
15130;SDS011;7666;50.920;4.628;2024-01-15T10:22:57;10.10;;;2.43;;
15130;SDS011;7666;50.920;4.628;2024-01-15T10:25:43;5.93;;;1.80;;
15130;SDS011;7666;50.920;4.628;2024-01-15T10:28:29;5.63;;;1.83;;
15130;SDS011;7666;50.920;4.628;2024-01-15T10:31:16;7.67;;;1.90;;
15130;SDS011;7666;50.920;4.628;2024-01-15T10:34:11;8.53;;;1.80;;
15130;SDS011;7666;50.920;4.628;2024-01-15T10:37:01;10.20;;;2.00;;
15130;SDS011;7666;50.920;4.628;2024-01-15T10:39:48;8.23;;;1.90;;
15130;SDS011;7666;50.920;4.628;2024-01-15T10:42:34;6.93;;;1.70;;
15130;SDS011;7666;50.920;4.628;2024-01-15T10:45:20;5.30;;;1.60;;
15130;SDS011;7666;50.920;4.628;2024-01-15T10:48:06;6.87;;;1.80;;
15130;SDS011;7666;50.920;4.628;2024-01-15T10:50:53;6.27;;;1.90;;
15130;SDS011;7666;50.920;4.628;2024-01-15T10:53:39;6.27;;;1.77;;
15130;SDS011;7666;50.920;4.628;2024-01-15T10:56:27;10.40;;;2.23;;
15130;SDS011;7666;50.920;4.628;2024-01-15T10:59:15;4.30;;;1.57;;
15130;SDS011;7666;50.920;4.628;2024-01-15T11:02:02;4.03;;;1.70;;
15130;SDS011;7666;50.920;4.628;2024-01-15T11:04:49;6.53;;;2.03;;
15130;SDS011;7666;50.920;4.628;2024-01-15T11:07:35;7.97;;;2.10;;
15130;SDS011;7666;50.920;4.628;2024-01-15T11:16:23;7.17;;;1.90;;
15130;SDS011;7666;50.920;4.628;2024-01-15T11:19:12;7.10;;;2.03;;
15130;SDS011;7666;50.920;4.628;2024-01-15T11:21:58;7.73;;;1.80;;
15130;SDS011;7666;50.920;4.628;2024-01-15T11:24:44;6.27;;;2.07;;
15130;SDS011;7666;50.920;4.628;2024-01-15T11:27:39;6.40;;;2.07;;
15130;SDS011;7666;50.920;4.628;2024-01-15T11:30:32;4.90;;;1.67;;
15130;SDS011;7666;50.920;4.628;2024-01-15T11:33:33;9.00;;;2.10;;
15130;SDS011;7666;50.920;4.628;2024-01-15T11:36:19;7.57;;;2.00;;
15130;SDS011;7666;50.920;4.628;2024-01-15T11:42:13;7.03;;;1.90;;
15130;SDS011;7666;50.920;4.628;2024-01-15T11:44:59;5.73;;;1.40;;
15130;SDS011;7666;50.920;4.628;2024-01-15T11:48:05;6.20;;;1.90;;
15130;SDS011;7666;50.920;4.628;2024-01-15T11:50:56;4.40;;;1.37;;
15130;SDS011;7666;50.920;4.628;2024-01-15T11:53:45;8.17;;;1.73;;
15130;SDS011;7666;50.920;4.628;2024-01-15T11:56:34;4.67;;;1.57;;
15130;SDS011;7666;50.920;4.628;2024-01-15T11:59:20;6.67;;;1.40;;
15130;SDS011;7666;50.920;4.628;2024-01-15T12:02:06;6.60;;;2.13;;
15130;SDS011;7666;50.920;4.628;2024-01-15T12:04:53;4.53;;;1.10;;
15130;SDS011;7666;50.920;4.628;2024-01-15T12:07:39;7.33;;;1.47;;
15130;SDS011;7666;50.920;4.628;2024-01-15T12:10:26;5.97;;;1.50;;
15130;SDS011;7666;50.920;4.628;2024-01-15T12:13:12;5.47;;;1.53;;
15130;SDS011;7666;50.920;4.628;2024-01-15T12:16:01;9.70;;;1.83;;
15130;SDS011;7666;50.920;4.628;2024-01-15T12:18:50;7.83;;;1.90;;
15130;SDS011;7666;50.920;4.628;2024-01-15T12:21:38;5.63;;;1.67;;
15130;SDS011;7666;50.920;4.628;2024-01-15T12:24:25;4.80;;;1.53;;
15130;SDS011;7666;50.920;4.628;2024-01-15T12:27:11;8.03;;;1.70;;
15130;SDS011;7666;50.920;4.628;2024-01-15T12:29:58;5.40;;;1.70;;
15130;SDS011;7666;50.920;4.628;2024-01-15T12:32:44;3.93;;;1.40;;
15130;SDS011;7666;50.920;4.628;2024-01-15T12:35:35;8.20;;;1.77;;
15130;SDS011;7666;50.920;4.628;2024-01-15T12:38:21;6.57;;;1.80;;
15130;SDS011;7666;50.920;4.628;2024-01-15T12:41:07;4.53;;;1.70;;
15130;SDS011;7666;50.920;4.628;2024-01-15T12:43:53;12.23;;;2.37;;
15130;SDS011;7666;50.920;4.628;2024-01-15T12:46:39;7.07;;;1.90;;
15130;SDS011;7666;50.920;4.628;2024-01-15T12:49:25;7.90;;;1.97;;
15130;SDS011;7666;50.920;4.628;2024-01-15T12:52:11;6.93;;;1.60;;
15130;SDS011;7666;50.920;4.628;2024-01-15T12:54:57;6.00;;;1.70;;
15130;SDS011;7666;50.920;4.628;2024-01-15T12:57:43;8.80;;;1.97;;
15130;SDS011;7666;50.920;4.628;2024-01-15T13:00:30;5.77;;;1.87;;
15130;SDS011;7666;50.920;4.628;2024-01-15T13:03:16;6.80;;;1.97;;
15130;SDS011;7666;50.920;4.628;2024-01-15T13:06:02;7.30;;;1.93;;
15130;SDS011;7666;50.920;4.628;2024-01-15T13:08:49;8.30;;;1.63;;
15130;SDS011;7666;50.920;4.628;2024-01-15T13:11:35;5.37;;;1.60;;
15130;SDS011;7666;50.920;4.628;2024-01-15T13:14:21;3.23;;;1.17;;
15130;SDS011;7666;50.920;4.628;2024-01-15T13:17:07;4.97;;;1.30;;
15130;SDS011;7666;50.920;4.628;2024-01-15T13:19:52;5.13;;;1.10;;
15130;SDS011;7666;50.920;4.628;2024-01-15T13:22:38;2.53;;;0.90;;
15130;SDS011;7666;50.920;4.628;2024-01-15T13:25:25;2.47;;;0.90;;
15130;SDS011;7666;50.920;4.628;2024-01-15T13:28:11;2.37;;;0.80;;
15130;SDS011;7666;50.920;4.628;2024-01-15T13:30:58;3.07;;;1.00;;
15130;SDS011;7666;50.920;4.628;2024-01-15T13:33:44;1.90;;;0.97;;
15130;SDS011;7666;50.920;4.628;2024-01-15T13:36:30;2.27;;;0.80;;
15130;SDS011;7666;50.920;4.628;2024-01-15T13:39:16;1.17;;;0.90;;
15130;SDS011;7666;50.920;4.628;2024-01-15T13:42:05;2.83;;;0.90;;
15130;SDS011;7666;50.920;4.628;2024-01-15T13:44:51;1.10;;;0.83;;
15130;SDS011;7666;50.920;4.628;2024-01-15T13:47:37;3.40;;;1.00;;
15130;SDS011;7666;50.920;4.628;2024-01-15T13:50:23;2.73;;;1.10;;
15130;SDS011;7666;50.920;4.628;2024-01-15T13:53:09;2.90;;;1.03;;
15130;SDS011;7666;50.920;4.628;2024-01-15T13:55:55;2.53;;;1.00;;
15130;SDS011;7666;50.920;4.628;2024-01-15T13:58:41;3.20;;;1.13;;
15130;SDS011;7666;50.920;4.628;2024-01-15T14:01:28;4.57;;;0.97;;
15130;SDS011;7666;50.920;4.628;2024-01-15T14:04:14;2.67;;;1.30;;
15130;SDS011;7666;50.920;4.628;2024-01-15T14:07:00;3.37;;;0.90;;
15130;SDS011;7666;50.920;4.628;2024-01-15T14:09:46;1.93;;;0.90;;
15130;SDS011;7666;50.920;4.628;2024-01-15T14:12:32;2.73;;;0.90;;
15130;SDS011;7666;50.920;4.628;2024-01-15T14:15:18;2.23;;;0.80;;
15130;SDS011;7666;50.920;4.628;2024-01-15T14:18:06;1.93;;;0.90;;
15130;SDS011;7666;50.920;4.628;2024-01-15T14:20:52;2.50;;;0.90;;
15130;SDS011;7666;50.920;4.628;2024-01-15T14:23:38;1.73;;;0.77;;
15130;SDS011;7666;50.920;4.628;2024-01-15T14:26:24;2.80;;;0.93;;
15130;SDS011;7666;50.920;4.628;2024-01-15T14:29:10;2.73;;;0.80;;
15130;SDS011;7666;50.920;4.628;2024-01-15T14:31:56;2.53;;;0.90;;
15130;SDS011;7666;50.920;4.628;2024-01-15T14:34:42;2.43;;;1.00;;
15130;SDS011;7666;50.920;4.628;2024-01-15T14:37:29;3.10;;;1.30;;
15130;SDS011;7666;50.920;4.628;2024-01-15T14:40:15;2.67;;;1.10;;
15130;SDS011;7666;50.920;4.628;2024-01-15T14:43:01;1.70;;;1.00;;
15130;SDS011;7666;50.920;4.628;2024-01-15T14:45:48;3.03;;;1.00;;
15130;SDS011;7666;50.920;4.628;2024-01-15T14:48:34;1.67;;;1.20;;
15130;SDS011;7666;50.920;4.628;2024-01-15T14:51:20;2.93;;;1.20;;
15130;SDS011;7666;50.920;4.628;2024-01-15T14:54:06;6.93;;;1.63;;
15130;SDS011;7666;50.920;4.628;2024-01-15T14:56:52;2.40;;;1.40;;
15130;SDS011;7666;50.920;4.628;2024-01-15T14:59:38;4.30;;;2.00;;
15130;SDS011;7666;50.920;4.628;2024-01-15T15:02:24;3.97;;;2.10;;
15130;SDS011;7666;50.920;4.628;2024-01-15T15:05:13;2.87;;;1.70;;
15130;SDS011;7666;50.920;4.628;2024-01-15T15:08:02;3.67;;;1.90;;
15130;SDS011;7666;50.920;4.628;2024-01-15T15:10:49;2.73;;;1.87;;
15130;SDS011;7666;50.920;4.628;2024-01-15T15:13:35;3.57;;;1.93;;
15130;SDS011;7666;50.920;4.628;2024-01-15T15:16:21;6.13;;;2.20;;
15130;SDS011;7666;50.920;4.628;2024-01-15T15:19:07;4.90;;;2.00;;
15130;SDS011;7666;50.920;4.628;2024-01-15T15:21:53;7.07;;;2.10;;
15130;SDS011;7666;50.920;4.628;2024-01-15T15:24:40;7.20;;;2.63;;
15130;SDS011;7666;50.920;4.628;2024-01-15T15:27:26;5.73;;;2.07;;
15130;SDS011;7666;50.920;4.628;2024-01-15T15:30:12;6.40;;;1.80;;
15130;SDS011;7666;50.920;4.628;2024-01-15T15:32:59;6.87;;;2.00;;
15130;SDS011;7666;50.920;4.628;2024-01-15T15:35:45;8.10;;;2.13;;
15130;SDS011;7666;50.920;4.628;2024-01-15T15:38:31;6.20;;;1.80;;
15130;SDS011;7666;50.920;4.628;2024-01-15T15:41:17;6.10;;;1.83;;
15130;SDS011;7666;50.920;4.628;2024-01-15T15:44:03;7.63;;;1.90;;
15130;SDS011;7666;50.920;4.628;2024-01-15T15:46:49;5.20;;;2.00;;
15130;SDS011;7666;50.920;4.628;2024-01-15T15:49:35;7.23;;;2.17;;
15130;SDS011;7666;50.920;4.628;2024-01-15T15:52:21;6.27;;;2.10;;
15130;SDS011;7666;50.920;4.628;2024-01-15T15:55:07;7.00;;;1.70;;
15130;SDS011;7666;50.920;4.628;2024-01-15T15:57:53;5.87;;;1.90;;
15130;SDS011;7666;50.920;4.628;2024-01-15T16:00:39;6.87;;;2.03;;
15130;SDS011;7666;50.920;4.628;2024-01-15T16:03:25;5.97;;;1.90;;
15130;SDS011;7666;50.920;4.628;2024-01-15T16:06:11;10.10;;;1.83;;
15130;SDS011;7666;50.920;4.628;2024-01-15T16:08:57;7.73;;;1.90;;
15130;SDS011;7666;50.920;4.628;2024-01-15T16:11:44;7.80;;;2.17;;
15130;SDS011;7666;50.920;4.628;2024-01-15T16:14:30;8.33;;;2.40;;
15130;SDS011;7666;50.920;4.628;2024-01-15T16:17:16;6.83;;;1.77;;
15130;SDS011;7666;50.920;4.628;2024-01-15T16:20:02;6.73;;;1.80;;
15130;SDS011;7666;50.920;4.628;2024-01-15T16:22:49;7.07;;;2.13;;
15130;SDS011;7666;50.920;4.628;2024-01-15T16:25:35;9.20;;;2.20;;
15130;SDS011;7666;50.920;4.628;2024-01-15T16:28:23;11.90;;;2.60;;
15130;SDS011;7666;50.920;4.628;2024-01-15T16:31:09;10.77;;;2.93;;
15130;SDS011;7666;50.920;4.628;2024-01-15T16:33:55;10.47;;;2.20;;
15130;SDS011;7666;50.920;4.628;2024-01-15T16:36:41;10.50;;;2.70;;
15130;SDS011;7666;50.920;4.628;2024-01-15T16:39:27;9.43;;;2.80;;
15130;SDS011;7666;50.920;4.628;2024-01-15T16:42:13;8.83;;;2.77;;
15130;SDS011;7666;50.920;4.628;2024-01-15T16:44:59;10.83;;;3.20;;
15130;SDS011;7666;50.920;4.628;2024-01-15T16:47:45;8.13;;;3.50;;
15130;SDS011;7666;50.920;4.628;2024-01-15T16:50:31;9.67;;;3.20;;
15130;SDS011;7666;50.920;4.628;2024-01-15T16:53:17;10.20;;;3.17;;
15130;SDS011;7666;50.920;4.628;2024-01-15T16:56:02;10.33;;;3.20;;
15130;SDS011;7666;50.920;4.628;2024-01-15T16:58:49;9.40;;;2.73;;
15130;SDS011;7666;50.920;4.628;2024-01-15T17:01:35;7.20;;;2.60;;